createdAt,value
2023-04-20T00:01:38.732Z,8.90
2023-04-20T00:04:05.613Z,8.90
2023-04-20T00:06:34.133Z,8.80
2023-04-20T00:09:01.273Z,8.80
2023-04-20T00:11:28.195Z,8.80
2023-04-20T00:13:54.866Z,8.80
2023-04-20T00:16:21.628Z,8.80
2023-04-20T00:18:48.803Z,8.80
2023-04-20T00:21:15.539Z,8.80
2023-04-20T00:23:42.361Z,8.70
2023-04-20T00:26:09.032Z,8.80
2023-04-20T00:28:35.690Z,8.80
2023-04-20T00:31:02.415Z,8.80
2023-04-20T00:33:29.107Z,8.80
2023-04-20T00:35:56.466Z,8.80
2023-04-20T00:38:23.202Z,8.80
2023-04-20T00:40:53.212Z,8.80
2023-04-20T00:43:21.049Z,8.80
2023-04-20T00:45:47.979Z,8.80
2023-04-20T00:48:14.752Z,8.80
2023-04-20T00:50:41.802Z,8.80
2023-04-20T00:53:08.848Z,8.80
2023-04-20T00:55:37.585Z,8.80
2023-04-20T00:58:04.427Z,8.80
2023-04-20T01:00:31.265Z,8.80
2023-04-20T01:02:58.133Z,8.80
2023-04-20T01:05:25.418Z,8.70
2023-04-20T01:07:52.288Z,8.70
2023-04-20T01:10:19.198Z,8.70
2023-04-20T01:12:45.829Z,8.70
2023-04-20T01:15:12.599Z,8.70
2023-04-20T01:17:39.743Z,8.70
2023-04-20T01:20:15.064Z,8.70
2023-04-20T01:22:50.196Z,8.70
2023-04-20T01:25:18.313Z,8.70
2023-04-20T01:27:45.048Z,8.70
2023-04-20T01:30:12.710Z,8.70
2023-04-20T01:32:40.521Z,8.70
2023-04-20T01:35:09.144Z,8.70
2023-04-20T01:37:36.046Z,8.70
2023-04-20T01:40:03.858Z,8.70
2023-04-20T01:42:30.694Z,8.70
2023-04-20T01:44:57.501Z,8.70
2023-04-20T01:47:24.210Z,8.70
2023-04-20T01:49:50.909Z,8.60
2023-04-20T01:52:17.564Z,8.60
2023-04-20T01:54:44.232Z,8.60
2023-04-20T01:57:10.865Z,8.60
2023-04-20T01:59:37.538Z,8.60
2023-04-20T02:02:04.290Z,8.60
2023-04-20T02:04:31.121Z,8.60
2023-04-20T02:06:57.773Z,8.60
2023-04-20T02:09:24.474Z,8.60
2023-04-20T02:11:51.181Z,8.60
2023-04-20T02:14:17.836Z,8.60
2023-04-20T02:16:44.524Z,8.60
2023-04-20T02:19:11.201Z,8.60
2023-04-20T02:21:37.973Z,8.60
2023-04-20T02:24:05.338Z,8.60
2023-04-20T02:26:32.004Z,8.60
2023-04-20T02:28:58.718Z,8.60
2023-04-20T02:31:25.433Z,8.60
2023-04-20T02:33:52.247Z,8.60
2023-04-20T02:36:18.916Z,8.60
2023-04-20T02:38:52.081Z,8.50
2023-04-20T02:41:18.812Z,8.50
2023-04-20T02:43:45.494Z,8.60
2023-04-20T02:46:12.173Z,8.60
2023-04-20T02:48:38.863Z,8.50
2023-04-20T02:51:05.536Z,8.50
2023-04-20T02:53:32.260Z,8.50
2023-04-20T02:55:58.959Z,8.50
2023-04-20T02:58:25.694Z,8.50
2023-04-20T03:00:52.364Z,8.50
2023-04-20T03:03:21.315Z,8.50
2023-04-20T03:05:48.218Z,8.40
2023-04-20T03:08:14.940Z,8.40
2023-04-20T03:10:41.573Z,8.40
2023-04-20T03:13:08.217Z,8.40
2023-04-20T03:15:34.875Z,8.40
2023-04-20T03:18:01.820Z,8.40
2023-04-20T03:20:28.513Z,8.40
2023-04-20T03:22:55.201Z,8.40
2023-04-20T03:25:22.130Z,8.40
2023-04-20T03:27:49.008Z,8.40
2023-04-20T03:30:15.991Z,8.40
2023-04-20T03:32:42.689Z,8.40
2023-04-20T03:35:09.604Z,8.40
2023-04-20T03:37:39.478Z,8.40
2023-04-20T03:40:09.415Z,8.40
2023-04-20T03:42:37.401Z,8.40
2023-04-20T03:45:06.354Z,8.30
2023-04-20T03:47:33.400Z,8.30
2023-04-20T03:50:00.180Z,8.30
2023-04-20T03:52:26.994Z,8.30
2023-04-20T03:54:53.665Z,8.30
2023-04-20T03:57:20.365Z,8.30
2023-04-20T03:59:47.084Z,8.20
2023-04-20T04:02:13.829Z,8.20
2023-04-20T04:04:41.243Z,8.20
2023-04-20T04:07:08.196Z,8.20
2023-04-20T04:09:34.847Z,8.20
2023-04-20T04:12:01.685Z,8.20
2023-04-20T04:14:30.253Z,8.20
2023-04-20T04:16:56.906Z,8.20
2023-04-20T04:19:23.592Z,8.20
2023-04-20T04:21:50.361Z,8.20
2023-04-20T04:24:17.648Z,8.20
2023-04-20T04:26:45.671Z,8.20
2023-04-20T04:29:12.402Z,8.20
2023-04-20T04:31:39.097Z,8.20
2023-04-20T04:34:05.884Z,8.20
2023-04-20T04:36:32.519Z,8.20
2023-04-20T04:38:59.268Z,8.20
2023-04-20T04:41:25.969Z,8.20
2023-04-20T04:43:53.372Z,8.20
2023-04-20T04:46:21.082Z,8.20
2023-04-20T04:48:47.813Z,8.20
2023-04-20T04:51:14.482Z,8.20
2023-04-20T04:53:45.066Z,8.20
2023-04-20T04:56:13.238Z,8.20
2023-04-20T04:58:39.953Z,8.20
2023-04-20T05:01:06.604Z,8.20
2023-04-20T05:03:33.347Z,8.20
2023-04-20T05:06:00.187Z,8.10
2023-04-20T05:08:26.854Z,8.10
2023-04-20T05:10:53.493Z,7.90
2023-04-20T05:13:20.420Z,7.90
2023-04-20T05:15:47.085Z,7.90
2023-04-20T05:18:13.797Z,7.80
2023-04-20T05:20:40.557Z,7.70
2023-04-20T05:23:07.217Z,7.80
2023-04-20T05:25:34.022Z,7.80
2023-04-20T05:28:00.779Z,7.90
2023-04-20T05:30:27.580Z,7.80
2023-04-20T05:32:54.266Z,7.80
2023-04-20T05:35:21.551Z,7.80
2023-04-20T05:37:48.658Z,7.80
2023-04-20T05:40:15.914Z,7.70
2023-04-20T05:42:42.792Z,7.80
2023-04-20T05:45:10.218Z,7.80
2023-04-20T05:47:36.953Z,7.80
2023-04-20T05:50:04.408Z,7.80
2023-04-20T05:52:31.057Z,7.80
2023-04-20T05:54:57.800Z,7.80
2023-04-20T05:57:24.593Z,7.80
2023-04-20T05:59:51.685Z,7.70
2023-04-20T06:02:18.431Z,7.70
2023-04-20T06:04:45.649Z,7.60
2023-04-20T06:07:12.482Z,7.70
2023-04-20T06:09:39.155Z,7.80
2023-04-20T06:12:05.942Z,7.80
2023-04-20T06:14:32.591Z,7.80
2023-04-20T06:16:59.229Z,7.80
2023-04-20T06:19:25.903Z,7.80
2023-04-20T06:21:52.626Z,7.70
2023-04-20T06:24:19.292Z,7.70
2023-04-20T06:26:45.945Z,7.50
2023-04-20T06:29:12.626Z,7.50
2023-04-20T06:31:39.311Z,7.50
2023-04-20T06:34:05.989Z,7.50
2023-04-20T06:36:32.859Z,7.50
2023-04-20T06:38:59.536Z,7.50
2023-04-20T06:41:26.198Z,7.50
2023-04-20T06:43:52.855Z,7.50
2023-04-20T06:46:19.567Z,7.50
2023-04-20T06:48:46.318Z,7.50
2023-04-20T06:51:13.988Z,7.50
2023-04-20T06:53:40.773Z,7.50
2023-04-20T06:56:07.815Z,7.60
2023-04-20T06:58:34.506Z,7.50
2023-04-20T07:01:01.762Z,7.60
2023-04-20T07:03:28.607Z,7.60
2023-04-20T07:05:55.771Z,7.60
2023-04-20T07:08:22.609Z,7.70
2023-04-20T07:10:49.311Z,7.70
2023-04-20T07:13:16.418Z,7.70
2023-04-20T07:15:45.156Z,7.60
2023-04-20T07:18:12.196Z,7.60
2023-04-20T07:20:39.004Z,7.70
2023-04-20T07:23:05.797Z,7.70
2023-04-20T07:25:32.941Z,7.80
2023-04-20T07:27:59.935Z,7.80
2023-04-20T07:30:26.734Z,7.80
2023-04-20T07:32:53.484Z,7.80
2023-04-20T07:35:20.330Z,7.90
2023-04-20T07:37:47.564Z,8.10
2023-04-20T07:40:14.643Z,8.10
2023-04-20T07:42:41.400Z,8.10
2023-04-20T07:45:09.212Z,8.20
2023-04-20T07:47:36.671Z,7.90
2023-04-20T07:50:05.113Z,8.00
2023-04-20T07:52:32.014Z,7.80
2023-04-20T07:54:59.547Z,7.90
2023-04-20T07:57:26.801Z,7.80
2023-04-20T07:59:53.511Z,7.90
2023-04-20T08:02:20.924Z,7.90
2023-04-20T08:04:49.135Z,7.80
2023-04-20T08:07:15.944Z,7.90
2023-04-20T08:09:42.632Z,8.00
2023-04-20T08:12:09.320Z,8.10
2023-04-20T08:14:35.969Z,8.20
2023-04-20T08:17:02.618Z,8.30
2023-04-20T08:19:29.278Z,8.40
2023-04-20T08:21:56.194Z,8.40
2023-04-20T08:24:22.865Z,8.40
2023-04-20T08:26:49.570Z,8.40
2023-04-20T08:29:16.287Z,8.50
2023-04-20T08:31:43.152Z,8.60
2023-04-20T08:34:09.953Z,8.60
2023-04-20T08:36:36.686Z,8.60
2023-04-20T08:39:11.910Z,8.70
2023-04-20T08:41:38.713Z,8.70
2023-04-20T08:44:07.034Z,8.70
2023-04-20T08:46:34.538Z,8.70
2023-04-20T08:49:04.690Z,8.80
2023-04-20T08:51:32.642Z,8.80
2023-04-20T08:54:06.113Z,8.80
2023-04-20T08:56:38.578Z,8.80
2023-04-20T08:59:05.845Z,8.80
2023-04-20T09:01:35.579Z,8.90
2023-04-20T09:04:17.200Z,8.90
2023-04-20T09:06:50.332Z,8.90
2023-04-20T09:09:18.399Z,8.90
2023-04-20T09:11:45.709Z,8.90
2023-04-20T09:14:16.624Z,8.90
2023-04-20T09:16:51.216Z,8.90
2023-04-20T09:19:24.785Z,9.00
2023-04-20T09:21:53.487Z,9.00
2023-04-20T09:24:30.603Z,9.00
2023-04-20T09:26:57.904Z,9.10
2023-04-20T09:29:27.976Z,9.20
2023-04-20T09:31:55.144Z,9.30
2023-04-20T09:34:23.401Z,9.30
2023-04-20T09:36:54.256Z,9.40
2023-04-20T09:39:22.775Z,9.50
2023-04-20T09:41:51.521Z,9.60
2023-04-20T09:44:19.599Z,9.70
2023-04-20T09:46:47.124Z,9.80
2023-04-20T09:49:14.886Z,9.80
2023-04-20T09:51:46.551Z,9.90
2023-04-20T09:54:14.518Z,10.00
2023-04-20T09:56:41.709Z,10.10
2023-04-20T09:59:08.617Z,10.30
2023-04-20T10:01:38.034Z,10.40
2023-04-20T10:04:09.546Z,10.60
2023-04-20T10:06:37.402Z,10.70
2023-04-20T10:09:08.591Z,10.70
2023-04-20T10:11:48.922Z,10.70
2023-04-20T10:14:23.999Z,10.70
2023-04-20T10:17:01.743Z,10.80
2023-04-20T10:19:42.916Z,10.80
2023-04-20T10:22:11.590Z,10.80
2023-04-20T10:24:38.637Z,10.80
2023-04-20T10:27:17.288Z,10.70
2023-04-20T10:29:44.008Z,10.70
2023-04-20T10:32:25.066Z,10.60
2023-04-20T10:35:09.861Z,10.50
2023-04-20T10:37:46.911Z,10.40
2023-04-20T10:40:13.808Z,10.40
2023-04-20T10:42:46.800Z,10.30
2023-04-20T10:45:13.872Z,10.30
2023-04-20T10:47:41.078Z,10.30
2023-04-20T10:50:16.399Z,10.40
2023-04-20T10:52:44.329Z,10.40
2023-04-20T10:55:25.509Z,10.40
2023-04-20T10:57:53.226Z,10.40
2023-04-20T11:00:26.175Z,10.50
2023-04-20T11:02:56.377Z,10.50
2023-04-20T11:05:24.994Z,10.60
2023-04-20T11:07:58.767Z,10.70
2023-04-20T11:10:40.959Z,10.70
2023-04-20T11:13:18.723Z,10.70
2023-04-20T11:15:45.371Z,10.70
2023-04-20T11:18:12.551Z,10.80
2023-04-20T11:20:54.080Z,10.80
2023-04-20T11:23:22.516Z,10.80
2023-04-20T11:25:53.624Z,10.90
2023-04-20T11:28:20.464Z,11.00
2023-04-20T11:30:49.571Z,11.00
2023-04-20T11:33:25.823Z,11.10
2023-04-20T11:35:52.645Z,11.10
2023-04-20T11:38:34.433Z,11.10
2023-04-20T11:41:07.864Z,11.20
2023-04-20T11:43:35.931Z,11.20
2023-04-20T11:46:02.819Z,11.30
2023-04-20T11:48:32.879Z,11.40
2023-04-20T11:50:59.580Z,11.50
2023-04-20T11:53:26.766Z,11.50
2023-04-20T11:55:53.459Z,11.60
2023-04-20T11:58:20.152Z,11.70
2023-04-20T12:00:46.790Z,11.70
2023-04-20T12:03:13.691Z,11.80
2023-04-20T12:05:40.626Z,11.90
2023-04-20T12:08:08.375Z,12.00
2023-04-20T12:10:35.177Z,12.10
2023-04-20T12:13:01.846Z,12.20
2023-04-20T12:15:28.492Z,12.30
2023-04-20T12:17:55.771Z,12.30
2023-04-20T12:20:22.630Z,12.30
2023-04-20T12:22:49.462Z,12.40
2023-04-20T12:25:16.156Z,12.40
2023-04-20T12:27:42.856Z,12.40
2023-04-20T12:30:10.189Z,12.50
2023-04-20T12:32:36.924Z,12.60
2023-04-20T12:35:03.736Z,12.70
2023-04-20T12:37:30.918Z,12.70
2023-04-20T12:39:57.767Z,12.80
2023-04-20T12:42:24.457Z,12.80
2023-04-20T12:44:54.231Z,12.80
2023-04-20T12:47:21.016Z,12.80
2023-04-20T12:49:47.802Z,12.80
2023-04-20T12:52:14.476Z,12.80
2023-04-20T12:54:43.857Z,12.70
2023-04-20T12:57:10.901Z,12.60
2023-04-20T12:59:37.548Z,12.50
2023-04-20T13:02:04.350Z,12.50
2023-04-20T13:04:31.171Z,12.40
2023-04-20T13:06:57.893Z,12.40
2023-04-20T13:09:27.009Z,12.40
2023-04-20T13:11:53.957Z,12.30
2023-04-20T13:14:21.076Z,12.40
2023-04-20T13:16:48.095Z,12.40
2023-04-20T13:19:14.974Z,12.50
2023-04-20T13:21:41.658Z,12.60
2023-04-20T13:24:08.485Z,12.60
2023-04-20T13:26:35.917Z,12.70
2023-04-20T13:29:03.104Z,12.70
2023-04-20T13:31:31.202Z,12.80
2023-04-20T13:33:57.913Z,12.80
2023-04-20T13:36:25.733Z,12.90
2023-04-20T13:38:53.519Z,12.90
2023-04-20T13:41:20.404Z,12.90
2023-04-20T13:43:47.033Z,13.00
2023-04-20T13:46:15.331Z,13.10
2023-04-20T13:48:42.156Z,13.20
2023-04-20T13:51:09.073Z,13.30
2023-04-20T13:53:35.891Z,13.40
2023-04-20T13:56:02.613Z,13.50
2023-04-20T13:58:29.283Z,13.60
2023-04-20T14:00:56.117Z,13.80
2023-04-20T14:03:25.167Z,13.80
2023-04-20T14:05:52.131Z,13.90
2023-04-20T14:08:19.812Z,13.90
2023-04-20T14:10:46.521Z,13.90
2023-04-20T14:13:13.212Z,13.90
2023-04-20T14:15:40.098Z,13.80
2023-04-20T14:18:06.956Z,13.80
2023-04-20T14:20:33.645Z,13.70
2023-04-20T14:23:00.459Z,13.60
2023-04-20T14:25:27.151Z,13.60
2023-04-20T14:27:53.833Z,13.60
2023-04-20T14:30:21.680Z,13.60
2023-04-20T14:32:56.012Z,13.50
2023-04-20T14:35:23.709Z,13.60
2023-04-20T14:37:50.496Z,13.60
2023-04-20T14:40:17.438Z,13.60
2023-04-20T14:42:44.144Z,13.60
2023-04-20T14:45:11.488Z,13.70
2023-04-20T14:47:38.755Z,13.70
2023-04-20T14:50:06.208Z,13.70
2023-04-20T14:52:32.861Z,13.60
2023-04-20T14:54:59.496Z,13.60
2023-04-20T14:57:26.284Z,13.60
2023-04-20T14:59:52.933Z,13.50
2023-04-20T15:02:19.734Z,13.50
2023-04-20T15:04:46.739Z,13.50
2023-04-20T15:07:13.583Z,13.50
2023-04-20T15:09:40.393Z,13.50
2023-04-20T15:12:07.109Z,13.50
2023-04-20T15:14:33.753Z,13.40
2023-04-20T15:17:00.398Z,13.40
2023-04-20T15:19:27.025Z,13.30
2023-04-20T15:21:53.679Z,13.30
2023-04-20T15:24:20.700Z,13.30
2023-04-20T15:26:47.505Z,13.30
2023-04-20T15:29:14.148Z,13.30
2023-04-20T15:31:43.382Z,13.40
2023-04-20T15:34:11.260Z,13.50
2023-04-20T15:36:38.160Z,13.50
2023-04-20T15:39:04.814Z,13.50
2023-04-20T15:41:31.655Z,13.50
2023-04-20T15:43:58.353Z,13.50
2023-04-20T15:46:26.558Z,13.50
2023-04-20T15:48:53.383Z,13.40
2023-04-20T15:51:20.190Z,13.30
2023-04-20T15:53:50.725Z,13.30
2023-04-20T15:56:22.676Z,13.20
2023-04-20T15:58:50.554Z,13.10
2023-04-20T16:01:18.731Z,13.10
2023-04-20T16:03:46.898Z,13.00
2023-04-20T16:06:13.862Z,12.90
2023-04-20T16:08:41.361Z,12.90
2023-04-20T16:11:08.601Z,12.90
2023-04-20T16:13:36.399Z,12.80
2023-04-20T16:16:03.252Z,12.80
2023-04-20T16:18:30.258Z,12.70
2023-04-20T16:20:56.889Z,12.80
2023-04-20T16:23:23.881Z,12.70
2023-04-20T16:25:50.870Z,12.80
2023-04-20T16:28:17.553Z,12.90
2023-04-20T16:30:44.572Z,12.90
2023-04-20T16:33:11.571Z,12.90
2023-04-20T16:35:38.276Z,13.00
2023-04-20T16:38:04.938Z,13.00
2023-04-20T16:40:31.670Z,13.00
2023-04-20T16:42:58.392Z,13.00
2023-04-20T16:45:25.028Z,13.00
2023-04-20T16:47:51.722Z,13.00
2023-04-20T16:50:21.818Z,13.00
2023-04-20T16:52:49.351Z,13.10
2023-04-20T16:55:16.059Z,13.10
2023-04-20T16:57:42.710Z,13.10
2023-04-20T17:00:10.761Z,13.00
2023-04-20T17:02:38.157Z,13.00
2023-04-20T17:05:06.124Z,12.90
2023-04-20T17:07:33.095Z,12.70
2023-04-20T17:10:00.381Z,12.70
2023-04-20T17:12:27.222Z,12.50
2023-04-20T17:14:55.380Z,12.40
2023-04-20T17:17:22.144Z,12.30
2023-04-20T17:19:48.861Z,12.10
2023-04-20T17:22:15.778Z,12.00
2023-04-20T17:24:42.400Z,11.90
2023-04-20T17:27:09.044Z,11.80
2023-04-20T17:29:38.344Z,11.80
2023-04-20T17:32:06.019Z,11.70
2023-04-20T17:34:33.096Z,11.70
2023-04-20T17:36:59.785Z,11.60
2023-04-20T17:39:26.694Z,11.50
2023-04-20T17:41:53.466Z,11.50
2023-04-20T17:44:20.723Z,11.40
2023-04-20T17:46:49.696Z,11.40
2023-04-20T17:49:16.398Z,11.30
2023-04-20T17:51:43.072Z,11.30
2023-04-20T17:54:11.250Z,11.20
2023-04-20T17:56:37.982Z,11.10
2023-04-20T17:59:05.439Z,11.10
2023-04-20T18:01:34.769Z,11.00
2023-04-20T18:04:02.585Z,11.00
2023-04-20T18:06:30.093Z,10.90
2023-04-20T18:08:58.175Z,10.90
2023-04-20T18:11:25.221Z,10.80
2023-04-20T18:13:52.091Z,10.70
2023-04-20T18:16:19.039Z,10.70
2023-04-20T18:18:48.904Z,10.60
2023-04-20T18:21:15.768Z,10.50
2023-04-20T18:23:42.421Z,10.50
2023-04-20T18:26:13.763Z,10.50
2023-04-20T18:28:40.515Z,10.40
2023-04-20T18:31:07.222Z,10.30
2023-04-20T18:33:33.892Z,10.30
2023-04-20T18:36:00.541Z,10.30
2023-04-20T18:38:27.181Z,10.20
2023-04-20T18:40:53.843Z,10.10
2023-04-20T18:43:20.532Z,10.00
2023-04-20T18:45:47.167Z,10.00
2023-04-20T18:48:13.886Z,9.90
2023-04-20T18:50:41.117Z,9.80
2023-04-20T18:53:07.930Z,9.80
2023-04-20T18:55:34.724Z,9.80
2023-04-20T18:58:01.367Z,9.70
2023-04-20T19:00:28.078Z,9.70
2023-04-20T19:02:54.929Z,9.70
2023-04-20T19:05:23.346Z,9.60
2023-04-20T19:07:49.964Z,9.50
2023-04-20T19:10:16.612Z,9.50
2023-04-20T19:12:43.223Z,9.40
2023-04-20T19:15:10.371Z,9.40
2023-04-20T19:17:37.085Z,9.30
2023-04-20T19:20:05.114Z,9.30
2023-04-20T19:22:31.762Z,9.20
2023-04-20T19:24:58.530Z,9.10
2023-04-20T19:27:25.315Z,9.10
2023-04-20T19:29:52.278Z,9.10
2023-04-20T19:32:19.007Z,9.00
2023-04-20T19:34:45.799Z,9.00
2023-04-20T19:37:12.429Z,8.90
2023-04-20T19:39:39.180Z,8.90
2023-04-20T19:42:06.234Z,8.80
2023-04-20T19:44:33.756Z,8.80
2023-04-20T19:47:00.437Z,8.70
2023-04-20T19:49:27.163Z,8.70
2023-04-20T19:51:53.822Z,8.60
2023-04-20T19:54:20.646Z,8.60
2023-04-20T19:56:47.343Z,8.60
2023-04-20T19:59:14.207Z,8.50
2023-04-20T20:01:40.991Z,8.50
2023-04-20T20:04:08.187Z,8.40
2023-04-20T20:06:35.046Z,8.40
2023-04-20T20:09:02.030Z,8.30
2023-04-20T20:11:28.788Z,8.30
2023-04-20T20:13:55.470Z,8.20
2023-04-20T20:16:22.332Z,8.20
2023-04-20T20:18:49.218Z,8.20
2023-04-20T20:21:15.921Z,8.10
2023-04-20T20:23:42.583Z,8.10
2023-04-20T20:26:09.279Z,8.00
2023-04-20T20:28:35.917Z,8.00
2023-04-20T20:31:02.815Z,7.90
2023-04-20T20:33:29.491Z,7.90
2023-04-20T20:35:56.152Z,7.80
2023-04-20T20:38:22.863Z,7.80
2023-04-20T20:40:50.539Z,7.70
2023-04-20T20:43:18.899Z,7.70
2023-04-20T20:45:47.140Z,7.70
2023-04-20T20:48:14.035Z,7.60
2023-04-20T20:50:40.940Z,7.60
2023-04-20T20:53:07.599Z,7.60
2023-04-20T20:55:34.578Z,7.50
2023-04-20T20:58:01.288Z,7.50
2023-04-20T21:00:28.027Z,7.50
2023-04-20T21:02:54.815Z,7.50
2023-04-20T21:05:23.032Z,7.40
2023-04-20T21:07:50.032Z,7.30
2023-04-20T21:10:16.744Z,7.30
2023-04-20T21:12:43.381Z,7.30
2023-04-20T21:15:10.752Z,7.30
2023-04-20T21:17:37.479Z,7.30
2023-04-20T21:20:05.837Z,7.20
2023-04-20T21:22:32.502Z,7.20
2023-04-20T21:24:59.182Z,7.10
2023-04-20T21:27:27.807Z,7.00
2023-04-20T21:29:54.474Z,7.00
2023-04-20T21:32:21.214Z,7.00
2023-04-20T21:34:47.850Z,7.00
2023-04-20T21:37:14.514Z,7.00
2023-04-20T21:39:41.147Z,6.90
2023-04-20T21:42:07.804Z,6.90
2023-04-20T21:44:34.508Z,6.80
2023-04-20T21:47:02.663Z,6.80
2023-04-20T21:49:29.660Z,6.80
2023-04-20T21:51:56.667Z,6.80
2023-04-20T21:54:23.319Z,6.70
2023-04-20T21:56:50.051Z,6.80
2023-04-20T21:59:16.958Z,6.70
2023-04-20T22:01:43.864Z,6.70
2023-04-20T22:04:10.801Z,6.60
2023-04-20T22:06:37.634Z,6.60
2023-04-20T22:09:04.849Z,6.60
2023-04-20T22:11:31.765Z,6.50
2023-04-20T22:13:58.404Z,6.50
2023-04-20T22:16:25.804Z,6.50
2023-04-20T22:18:52.503Z,6.50
2023-04-20T22:21:19.170Z,6.50
2023-04-20T22:23:46.042Z,6.50
2023-04-20T22:26:12.685Z,6.50
2023-04-20T22:28:39.331Z,6.40
2023-04-20T22:31:06.031Z,6.40
2023-04-20T22:33:32.721Z,6.30
2023-04-20T22:36:00.053Z,6.30
2023-04-20T22:38:26.768Z,6.30
2023-04-20T22:40:53.713Z,6.30
2023-04-20T22:43:21.514Z,6.30
2023-04-20T22:45:48.857Z,6.20
2023-04-20T22:48:15.648Z,6.20
2023-04-20T22:50:42.388Z,6.20
2023-04-20T22:53:09.090Z,6.20
2023-04-20T22:55:35.882Z,6.20
2023-04-20T22:58:02.534Z,6.10
2023-04-20T23:00:29.332Z,6.10
2023-04-20T23:02:56.200Z,6.10
2023-04-20T23:05:23.208Z,6.00
2023-04-20T23:07:49.952Z,6.00
2023-04-20T23:10:16.595Z,6.00
2023-04-20T23:12:44.598Z,6.00
2023-04-20T23:15:12.096Z,6.00
2023-04-20T23:17:39.163Z,6.00
2023-04-20T23:20:10.349Z,5.90
2023-04-20T23:22:37.253Z,5.90
2023-04-20T23:25:04.073Z,5.90
2023-04-20T23:27:30.765Z,5.90
2023-04-20T23:29:57.450Z,5.90
2023-04-20T23:32:24.581Z,5.80
2023-04-20T23:34:51.313Z,5.80
2023-04-20T23:37:17.971Z,5.80
2023-04-20T23:39:44.608Z,5.80
2023-04-20T23:42:11.288Z,5.80
2023-04-20T23:44:37.946Z,5.70
2023-04-20T23:47:04.626Z,5.70
2023-04-20T23:49:31.252Z,5.70
2023-04-20T23:51:57.919Z,5.70
2023-04-20T23:54:24.596Z,5.60
2023-04-20T23:56:51.375Z,5.60
2023-04-20T23:59:18.346Z,5.60
